North Kortright, New York
Current Conditions -  °F | °C
As of 11:35 AM on Tuesday 27 Jan 2015 (Local Time) from KNY0 Reporting Station
Overcast Overcast  
Wind Chill:   Ceiling: 4800
Heat Index: 15°   Visibility: 10mi
Dew Point:   Wind: 8mph
Humidity: 60%   Direction: 250°WSW
Pressure: 29.77"   Gusts: NA
Location:  42.4723°N, 74.8433°W
Report Text: KNY0 271635Z AUTO 25007KT 10SM OVC048 M10/M16 A2977 RMK AO2 T10961160
Loading
Personal Weather Stations






























Interactive Weather Map New forecast layout! Learn more

10-Day Weather Forecast

Advertisements
Track Severe Weather on mobile